Aircraft
UPR1004 PR-AED A330
SAEZ
Minister Pistarini International Airport
SBKP
Viracopos International Airport
Pilot:: Jair
Aircraft:: A330-300 (RR)
Alternate: SBGR
Network: ivao
FLIGHT DETAILS
Distance: 928nm Duration 02h 16m
Cruise Speed: Flight Level: 35000
Validation: Pending Validation Type Charter
Flight Fuel
ZFW: 119957
Block Fuel/Initial FOB: 50949
Flight Fuel: 0
Cargo
Passengers: 250
Cargo: 22100
ROUTE
ROUTE: saez dct sbkp
REMARKS:
DATE
Date: 26-09-02
Departure Time: 0711
Cargo: 22100
FLIGHT DETAILS
Crashed: No
Validator Comments:
Flight Rating: 99
LANDING ANALYSIS
Landing wind: 139º/12 kt
Landing heading: 148º
Landing VS:: -90 ft/min
Landing IAS:: 135 kt
Landing Force G: 1 G
Landing Bank: -1
Landing Pitch: -5
Landing Flaps: 100
Navigation Lights: ON
Landing Lights: ON
Beacon Lights: ON
Strobe Lights: ON
viserfly

ALTITUDE CHART

viserfly

MAIN EVENTS

DATE EVENT IAS ALTITUDE
2026-09-02 07:10:40 FLYacars version 1.3.6 8 82
2026-09-02 07:10:41 Aircraft boarding in progress 8 82
2026-09-02 07:10:41 FLAPS 25% 8 82
2026-09-02 07:10:41 Navigation Lights ON 8 82
2026-09-02 07:10:41 Beacon Lights ON 8 82
2026-09-02 07:10:41 Strobe Lights ON 8 82
2026-09-02 07:10:41 Landing Lights ON 8 82
2026-09-02 07:10:41 Taxi Lights ON 8 82
2026-09-02 07:10:41 Starting Engine 2 8 82
2026-09-02 07:10:41 Starting Engine 1 8 82
2026-09-02 07:11:10 Aircraft taxiing to runway 13 82
2026-09-02 07:11:41 Detected Take-off roll, HDG 125, IAS 170kt, GS 162kt, G-force 1.1g, Pitch -3.8deg, Bank -0.4deg, Wind 080/09kt, Temp 10°C 170 88
2026-09-02 07:11:41 Airborne 170 88
2026-09-02 07:11:41 Incorrect altimeter settings on takeoff 170 88
2026-09-02 07:11:52 Taxi Lights OFF 197 405
2026-09-02 07:12:05 Gear UP, IAS 201kt, GS 202kt, ALT 1355ft AGL 201 1428
2026-09-02 07:12:18 FLAPS 0% 215kt, ALT 2107ft 215 2107
2026-09-02 07:15:48 Landing lights ON above 10000fts 283 11001
2026-09-02 07:31:54 Aircraft on Top Of Climb at 34871ft, IAS 270kt, GS 604kt, HDG 46deg, TAT -44deg, WIND 242/146kt 270 34871
2026-09-02 09:08:40 Aircraft on Top Of Descent at 34499ft, IAS 278kt, GS 430kt, HDG 330deg, TAT -36deg, WIND 247/87kt 278 34499
2026-09-02 09:14:44 Simulator Paused 310 18676
2026-09-02 09:14:45 Simulator Un-Paused 310 18674
2026-09-02 09:14:45 Simulator Paused 310 18656
2026-09-02 09:15:09 Simulator Un-Paused 310 18649
2026-09-02 09:20:23 FLAPS 25% 229kt, ALT 9842ft 229 9842
2026-09-02 09:20:30 FLAPS 50% 229kt, ALT 9631ft 229 9631
2026-09-02 09:23:30 FLAPS 75% 179kt, ALT 5382ft 179 5382
2026-09-02 09:23:58 FLAPS 100% 169kt, ALT 4920ft 169 4920
2026-09-02 09:27:58 Landed at destination with a landing rate of -90fpm, G-force 1.0g, Pitch -5.1deg, Bank -1.1deg, HDG 148deg, IAS 135kt, GS 129kt, Wind 139/12kt, Temp 13°C 135 2165
2026-09-02 09:27:58 Incorrect altimeter settings on landing 135 2165
2026-09-02 09:28:09 Aircraft taxiing to apron 36 2154
2026-09-02 09:28:16 FLAPS 75% 11 2154
2026-09-02 09:28:17 FLAPS 0% 11 2154
2026-09-02 09:28:49 Aircraft at gate/stand, ground services are moving into position, disembarkation has begun. Remaining FOB 50949kg FLYacars v1.3.6 12 2154
viserfly

ACARS DATA

DATE IAS GS ALTITUDE FUEL CONSUMED OAT FLIGHT STATUS
2026-09-02 07:11:10 15 7 82 0 10 TAXI TO RUNWAY
2026-09-02 07:11:41 166 158 86 0 10 TAKEOFF
2026-09-02 07:12:11 205 211 1761 0 12 INITIAL CLIMB
2026-09-02 07:12:41 243 244 2585 0 12 CLIMB
2026-09-02 07:13:11 248 260 3934 0 11 CLIMB
2026-09-02 07:13:41 248 274 5444 0 8 CLIMB
2026-09-02 07:14:10 248 285 6986 0 4 CLIMB
2026-09-02 07:14:41 248 295 8563 0 1 CLIMB
2026-09-02 07:15:11 248 306 10089 0 -2 CLIMB
2026-09-02 07:15:41 276 345 10810 0 -3 CLIMB
2026-09-02 07:16:11 289 366 11857 0 -5 CLIMB
2026-09-02 07:16:41 290 376 13181 0 -8 CLIMB
2026-09-02 07:17:11 290 387 14440 0 -11 CLIMB
2026-09-02 07:17:41 290 396 15673 0 -14 CLIMB
2026-09-02 07:18:11 290 406 16851 0 -17 CLIMB
2026-09-02 07:18:41 290 415 17974 0 -20 CLIMB
2026-09-02 07:19:11 290 424 19007 0 -22 CLIMB
2026-09-02 07:19:40 291 434 19979 0 -24 CLIMB
2026-09-02 07:20:11 290 443 20919 0 -26 CLIMB
2026-09-02 07:20:41 290 452 21821 0 -28 CLIMB
2026-09-02 07:21:10 290 461 22678 0 -30 CLIMB
2026-09-02 07:21:40 290 470 23488 0 -31 CLIMB
2026-09-02 07:22:10 290 478 24270 0 -33 CLIMB
2026-09-02 07:22:41 291 487 24983 0 -34 CLIMB
2026-09-02 07:23:10 291 494 25712 0 -36 CLIMB
2026-09-02 07:23:41 291 502 26398 0 -38 CLIMB
2026-09-02 07:24:11 291 509 27066 0 -39 CLIMB
2026-09-02 07:24:41 291 516 27706 0 -40 CLIMB
2026-09-02 07:25:10 290 524 28295 0 -42 CLIMB
2026-09-02 07:25:41 291 532 28853 0 -42 CLIMB
2026-09-02 07:26:11 291 538 29437 0 -44 CLIMB
2026-09-02 07:26:41 290 545 29978 0 -44 CLIMB
2026-09-02 07:27:11 290 555 30414 0 -44 CLIMB
2026-09-02 07:27:41 291 564 30822 0 -44 CLIMB
2026-09-02 07:28:11 291 572 31255 0 -44 CLIMB
2026-09-02 07:28:41 291 581 31667 0 -43 CLIMB
2026-09-02 07:29:10 287 586 32173 0 -43 CLIMB
2026-09-02 07:29:40 284 592 32646 0 -43 CLIMB
2026-09-02 07:30:11 281 597 33138 0 -43 CLIMB
2026-09-02 07:30:41 278 602 33606 0 -43 CLIMB
2026-09-02 07:31:11 276 605 34107 0 -43 CLIMB
2026-09-02 07:31:41 272 605 34732 0 -44 CLIMB
2026-09-02 07:32:10 263 593 34899 0 -44 ENROUTE
2026-09-02 07:32:41 259 587 34897 0 -44 ENROUTE
2026-09-02 07:33:11 260 587 34895 0 -44 ENROUTE
2026-09-02 07:33:41 259 587 34924 0 -44 ENROUTE
2026-09-02 07:34:11 260 588 34933 0 -44 ENROUTE
2026-09-02 07:34:41 260 588 34934 0 -44 ENROUTE
2026-09-02 07:35:10 260 588 34934 0 -44 ENROUTE
2026-09-02 07:35:41 260 588 34936 0 -44 ENROUTE
2026-09-02 07:36:11 259 588 34936 0 -44 ENROUTE
2026-09-02 07:36:41 260 589 34969 0 -44 ENROUTE
2026-09-02 07:37:11 260 589 34972 0 -44 ENROUTE
2026-09-02 07:37:41 260 589 34970 0 -44 ENROUTE
2026-09-02 07:38:11 260 589 34970 0 -44 ENROUTE
2026-09-02 07:38:40 260 589 34971 0 -44 ENROUTE
2026-09-02 07:39:11 259 590 35009 0 -44 ENROUTE
2026-09-02 07:39:41 260 590 35012 0 -44 ENROUTE
2026-09-02 07:40:11 260 590 35005 0 -44 ENROUTE
2026-09-02 07:40:41 260 590 35005 0 -44 ENROUTE
2026-09-02 07:41:11 260 590 35005 0 -44 ENROUTE
2026-09-02 07:41:41 259 590 35037 0 -43 ENROUTE
2026-09-02 07:42:11 260 591 35049 0 -43 ENROUTE
2026-09-02 07:42:41 260 591 35049 0 -43 ENROUTE
2026-09-02 07:43:11 260 591 35047 0 -43 ENROUTE
2026-09-02 07:43:41 260 591 35047 0 -43 ENROUTE
2026-09-02 07:44:11 259 590 35068 0 -43 ENROUTE
2026-09-02 07:44:41 260 591 35096 0 -43 ENROUTE
2026-09-02 07:45:11 260 591 35093 0 -43 ENROUTE
2026-09-02 07:45:41 260 591 35093 0 -43 ENROUTE
2026-09-02 07:46:11 260 591 35090 0 -43 ENROUTE
2026-09-02 07:46:41 260 591 35091 0 -43 ENROUTE
2026-09-02 07:47:11 260 591 35092 0 -43 ENROUTE
2026-09-02 07:47:41 260 591 35093 0 -43 ENROUTE
2026-09-02 07:48:11 260 591 35092 0 -43 ENROUTE
2026-09-02 07:48:41 260 591 35089 0 -43 ENROUTE
2026-09-02 07:49:11 260 591 35090 0 -43 ENROUTE
2026-09-02 07:49:41 260 591 35127 0 -42 ENROUTE
2026-09-02 07:50:11 260 591 35129 0 -42 ENROUTE
2026-09-02 07:50:41 260 591 35128 0 -42 ENROUTE
2026-09-02 07:51:11 260 591 35129 0 -42 ENROUTE
2026-09-02 07:51:41 260 591 35130 0 -42 ENROUTE
2026-09-02 07:52:11 260 591 35160 0 -42 ENROUTE
2026-09-02 07:52:41 260 591 35161 0 -42 ENROUTE
2026-09-02 07:53:11 260 590 35162 0 -42 ENROUTE
2026-09-02 07:53:41 259 590 35161 0 -42 ENROUTE
2026-09-02 07:54:11 259 591 35161 0 -42 ENROUTE
2026-09-02 07:54:41 260 591 35163 0 -42 ENROUTE
2026-09-02 07:55:11 260 591 35201 0 -42 ENROUTE
2026-09-02 07:55:41 260 591 35200 0 -42 ENROUTE
2026-09-02 07:56:11 260 591 35202 0 -42 ENROUTE
2026-09-02 07:56:41 260 591 35202 0 -42 ENROUTE
2026-09-02 07:57:11 260 591 35202 0 -42 ENROUTE
2026-09-02 07:57:41 260 590 35237 0 -41 ENROUTE
2026-09-02 07:58:11 260 590 35239 0 -41 ENROUTE
2026-09-02 07:58:41 260 590 35234 0 -41 ENROUTE
2026-09-02 07:59:11 260 590 35232 0 -41 ENROUTE
2026-09-02 07:59:41 260 589 35237 0 -41 ENROUTE
2026-09-02 08:00:11 260 589 35283 0 -41 ENROUTE
2026-09-02 08:00:41 259 588 35284 0 -41 ENROUTE
2026-09-02 08:01:11 260 587 35283 0 -41 ENROUTE
2026-09-02 08:01:41 259 587 35281 0 -41 ENROUTE
2026-09-02 08:02:11 260 588 35277 0 -41 ENROUTE
2026-09-02 08:02:41 260 588 35294 0 -41 ENROUTE
2026-09-02 08:03:11 260 587 35312 0 -41 ENROUTE
2026-09-02 08:03:41 260 587 35311 0 -41 ENROUTE
2026-09-02 08:04:11 259 587 35313 0 -41 ENROUTE
2026-09-02 08:04:41 260 587 35318 0 -41 ENROUTE
2026-09-02 08:05:11 261 586 35328 0 -41 ENROUTE
2026-09-02 08:05:41 260 585 35356 0 -41 ENROUTE
2026-09-02 08:06:11 260 585 35356 0 -41 ENROUTE
2026-09-02 08:06:41 260 585 35361 0 -41 ENROUTE
2026-09-02 08:07:11 260 585 35363 0 -41 ENROUTE
2026-09-02 08:07:41 260 585 35362 0 -41 ENROUTE
2026-09-02 08:08:11 260 584 35401 0 -41 ENROUTE
2026-09-02 08:08:41 260 583 35401 0 -41 ENROUTE
2026-09-02 08:09:11 260 583 35403 0 -41 ENROUTE
2026-09-02 08:09:41 260 583 35402 0 -41 ENROUTE
2026-09-02 08:10:11 260 582 35397 0 -41 ENROUTE
2026-09-02 08:10:41 260 582 35439 0 -40 ENROUTE
2026-09-02 08:11:11 260 581 35443 0 -40 ENROUTE
2026-09-02 08:11:41 260 581 35442 0 -40 ENROUTE
2026-09-02 08:12:11 259 581 35443 0 -40 ENROUTE
2026-09-02 08:12:41 260 581 35440 0 -40 ENROUTE
2026-09-02 08:13:11 260 581 35433 0 -40 ENROUTE
2026-09-02 08:13:41 260 581 35431 0 -40 ENROUTE
2026-09-02 08:14:11 260 581 35441 0 -40 ENROUTE
2026-09-02 08:14:41 260 580 35435 0 -40 ENROUTE
2026-09-02 08:15:11 260 580 35422 0 -40 ENROUTE
2026-09-02 08:15:41 260 580 35431 0 -40 ENROUTE
2026-09-02 08:16:11 260 580 35460 0 -40 ENROUTE
2026-09-02 08:16:41 260 580 35463 0 -40 ENROUTE
2026-09-02 08:17:11 260 580 35463 0 -40 ENROUTE
2026-09-02 08:17:41 260 580 35464 0 -40 ENROUTE
2026-09-02 08:18:11 260 580 35463 0 -40 ENROUTE
2026-09-02 08:18:41 260 579 35514 0 -40 ENROUTE
2026-09-02 08:19:11 260 578 35503 0 -40 ENROUTE
2026-09-02 08:19:41 260 578 35508 0 -40 ENROUTE
2026-09-02 08:20:11 260 578 35509 0 -40 ENROUTE
2026-09-02 08:20:41 260 578 35508 0 -40 ENROUTE
2026-09-02 08:21:11 261 577 35529 0 -40 ENROUTE
2026-09-02 08:21:41 260 575 35536 0 -40 ENROUTE
2026-09-02 08:22:11 260 576 35539 0 -40 ENROUTE
2026-09-02 08:22:41 258 576 35537 0 -40 ENROUTE
2026-09-02 08:23:11 261 574 35553 0 -40 ENROUTE
2026-09-02 08:23:41 262 572 35590 0 -40 ENROUTE
2026-09-02 08:24:11 260 570 35617 0 -40 ENROUTE
2026-09-02 08:24:41 259 569 35614 0 -40 ENROUTE
2026-09-02 08:25:11 260 569 35615 0 -40 ENROUTE
2026-09-02 08:25:41 260 568 35618 0 -40 ENROUTE
2026-09-02 08:26:11 260 568 35614 0 -40 ENROUTE
2026-09-02 08:26:41 260 566 35661 0 -40 ENROUTE
2026-09-02 08:27:11 261 565 35672 0 -40 ENROUTE
2026-09-02 08:27:41 260 564 35680 0 -40 ENROUTE
2026-09-02 08:28:11 260 564 35680 0 -40 ENROUTE
2026-09-02 08:28:41 260 563 35680 0 -40 ENROUTE
2026-09-02 08:29:11 261 563 35725 0 -40 ENROUTE
2026-09-02 08:29:41 260 561 35726 0 -40 ENROUTE
2026-09-02 08:30:11 260 560 35726 0 -40 ENROUTE
2026-09-02 08:30:41 260 560 35726 0 -40 ENROUTE
2026-09-02 08:31:11 260 561 35725 0 -40 ENROUTE
2026-09-02 08:31:41 261 560 35742 0 -40 ENROUTE
2026-09-02 08:32:11 260 558 35771 0 -40 ENROUTE
2026-09-02 08:32:41 260 558 35772 0 -40 ENROUTE
2026-09-02 08:33:11 260 558 35770 0 -40 ENROUTE
2026-09-02 08:33:41 260 557 35773 0 -40 ENROUTE
2026-09-02 08:34:11 260 556 35772 0 -40 ENROUTE
2026-09-02 08:34:41 261 555 35823 0 -40 ENROUTE
2026-09-02 08:35:11 260 553 35829 0 -40 ENROUTE
2026-09-02 08:35:41 259 553 35828 0 -40 ENROUTE
2026-09-02 08:36:11 260 552 35833 0 -40 ENROUTE
2026-09-02 08:36:41 260 551 35833 0 -40 ENROUTE
2026-09-02 08:37:11 260 550 35881 0 -41 ENROUTE
2026-09-02 08:37:41 259 549 35880 0 -41 ENROUTE
2026-09-02 08:38:11 260 550 35883 0 -41 ENROUTE
2026-09-02 08:38:41 260 549 35885 0 -41 ENROUTE
2026-09-02 08:39:11 259 548 35882 0 -41 ENROUTE
2026-09-02 08:39:41 260 549 35883 0 -41 ENROUTE
2026-09-02 08:40:11 260 549 35881 0 -41 ENROUTE
2026-09-02 08:40:41 260 549 35881 0 -41 ENROUTE
2026-09-02 08:41:11 260 549 35879 0 -41 ENROUTE
2026-09-02 08:41:41 260 549 35880 0 -41 ENROUTE
2026-09-02 08:42:11 260 548 35882 0 -41 ENROUTE
2026-09-02 08:42:41 261 546 35922 0 -41 ENROUTE
2026-09-02 08:43:11 260 544 35924 0 -41 ENROUTE
2026-09-02 08:43:41 260 544 35921 0 -41 ENROUTE
2026-09-02 08:44:11 260 544 35917 0 -41 ENROUTE
2026-09-02 08:44:41 260 544 35916 0 -41 ENROUTE
2026-09-02 08:45:11 261 544 35927 0 -41 ENROUTE
2026-09-02 08:45:41 260 542 35947 0 -41 ENROUTE
2026-09-02 08:46:11 260 541 35954 0 -41 ENROUTE
2026-09-02 08:46:41 260 540 35961 0 -41 ENROUTE
2026-09-02 08:47:11 259 540 35961 0 -41 ENROUTE
2026-09-02 08:47:41 260 540 35960 0 -41 ENROUTE
2026-09-02 08:48:11 261 538 35994 0 -41 ENROUTE
2026-09-02 08:48:41 260 535 36006 0 -41 ENROUTE
2026-09-02 08:49:11 260 534 36006 0 -41 ENROUTE
2026-09-02 08:49:41 260 534 36006 0 -41 ENROUTE
2026-09-02 08:50:11 260 534 36003 0 -41 ENROUTE
2026-09-02 08:50:41 261 533 36029 0 -41 ENROUTE
2026-09-02 08:51:11 260 530 36039 0 -41 ENROUTE
2026-09-02 08:51:41 260 530 36039 0 -41 ENROUTE
2026-09-02 08:52:11 260 530 36037 0 -41 ENROUTE
2026-09-02 08:52:41 260 530 36045 0 -41 ENROUTE
2026-09-02 08:53:11 260 529 36048 0 -41 ENROUTE
2026-09-02 08:53:41 259 541 36083 0 -41 ENROUTE
2026-09-02 08:54:11 256 531 36090 0 -41 ENROUTE
2026-09-02 08:54:41 257 502 36056 0 -41 ENROUTE
2026-09-02 08:55:11 257 456 36055 0 -41 ENROUTE
2026-09-02 08:55:41 257 405 36059 0 -41 ENROUTE
2026-09-02 08:56:11 258 385 36056 0 -41 ENROUTE
2026-09-02 08:56:41 260 387 36030 0 -41 ENROUTE
2026-09-02 08:57:11 258 362 36033 0 -41 ENROUTE
2026-09-02 08:57:41 257 377 36034 0 -41 ENROUTE
2026-09-02 08:58:11 258 395 36046 0 -41 ENROUTE
2026-09-02 08:58:41 260 385 36051 0 -41 ENROUTE
2026-09-02 08:59:11 260 381 36055 0 -41 ENROUTE
2026-09-02 08:59:41 260 379 36050 0 -41 ENROUTE
2026-09-02 09:00:11 260 379 36048 0 -41 ENROUTE
2026-09-02 09:00:41 260 379 36048 0 -41 ENROUTE
2026-09-02 09:01:11 260 379 36045 0 -41 ENROUTE
2026-09-02 09:01:41 259 379 36066 0 -41 ENROUTE
2026-09-02 09:02:11 260 381 36084 0 -41 ENROUTE
2026-09-02 09:02:41 260 381 36084 0 -41 ENROUTE
2026-09-02 09:03:11 260 381 36085 0 -41 ENROUTE
2026-09-02 09:03:41 260 381 36078 0 -41 ENROUTE
2026-09-02 09:04:11 260 381 36077 0 -41 ENROUTE
2026-09-02 09:04:41 259 381 36078 0 -41 ENROUTE
2026-09-02 09:05:11 260 381 36078 0 -41 ENROUTE
2026-09-02 09:05:41 259 382 36094 0 -41 ENROUTE
2026-09-02 09:06:11 260 384 36100 0 -41 ENROUTE
2026-09-02 09:06:41 260 384 36101 0 -41 ENROUTE
2026-09-02 09:07:11 259 384 36101 0 -41 ENROUTE
2026-09-02 09:07:41 260 384 36100 0 -41 ENROUTE
2026-09-02 09:08:11 262 397 36020 0 -41 DESCENT
2026-09-02 09:08:41 278 430 34491 0 -36 DESCENT
2026-09-02 09:09:11 299 479 32287 0 -31 DESCENT
2026-09-02 09:09:41 311 523 30429 0 -26 DESCENT
2026-09-02 09:10:11 310 544 29269 0 -24 DESCENT
2026-09-02 09:10:41 311 553 28127 0 -22 DESCENT
2026-09-02 09:11:11 309 542 27127 0 -21 DESCENT
2026-09-02 09:11:41 310 519 25948 0 -19 DESCENT
2026-09-02 09:12:11 310 484 24846 0 -17 DESCENT
2026-09-02 09:12:41 310 472 23717 0 -15 DESCENT
2026-09-02 09:13:11 309 466 22550 0 -14 DESCENT
2026-09-02 09:13:41 310 461 21289 0 -13 DESCENT
2026-09-02 09:14:11 310 455 20056 0 -12 DESCENT
2026-09-02 09:14:41 310 449 18813 0 -11 DESCENT
2026-09-02 09:15:11 310 448 18557 0 -11 DESCENT
2026-09-02 09:15:41 310 439 17441 0 -9 DESCENT
2026-09-02 09:16:11 306 427 16418 0 -7 DESCENT
2026-09-02 09:16:41 283 397 16184 0 -7 DESCENT
2026-09-02 09:17:11 259 363 15602 0 -6 DESCENT
2026-09-02 09:17:41 235 329 15021 0 -5 DESCENT
2026-09-02 09:18:11 216 305 14433 0 -4 DESCENT
2026-09-02 09:18:41 219 301 13442 0 -2 DESCENT
2026-09-02 09:19:11 223 297 12390 0 0 DESCENT
2026-09-02 09:19:41 226 292 11342 0 1 DESCENT
2026-09-02 09:20:11 228 286 10293 0 3 DESCENT
2026-09-02 09:20:41 229 275 9292 0 4 DESCENT
2026-09-02 09:21:11 216 254 8460 0 5 DESCENT
2026-09-02 09:21:41 205 235 7776 0 6 DESCENT
2026-09-02 09:22:11 198 221 7085 0 7 DESCENT
2026-09-02 09:22:41 192 209 6397 0 8 DESCENT
2026-09-02 09:23:11 187 202 5708 0 10 DESCENT
2026-09-02 09:23:41 175 197 5203 0 11 DESCENT
2026-09-02 09:24:11 162 184 4721 0 11 DESCENT
2026-09-02 09:24:41 144 157 4226 0 11 APPROACH
2026-09-02 09:25:11 140 137 4125 0 11 APPROACH
2026-09-02 09:25:41 144 136 3796 0 11 APPROACH
2026-09-02 09:26:11 143 132 3505 0 11 APPROACH
2026-09-02 09:26:41 145 134 3021 0 12 APPROACH
2026-09-02 09:27:11 137 135 2601 0 13 ON FINAL
2026-09-02 09:27:41 142 139 2292 0 13 ON FINAL
2026-09-02 09:28:11 12 0 2154 0 13 TAXI TO APRON
2026-09-02 09:28:41 12 0 2154 0 13 TAXI TO APRON
  • Join our VA!

    It has been 11 years of great learning, friendships, and stories.

  • Sign up now!